createdAt,value
2019-01-18T00:00:37.209Z,22.30
2019-01-18T00:03:03.263Z,22.30
2019-01-18T00:05:29.212Z,22.30
2019-01-18T00:07:55.169Z,22.30
2019-01-18T00:10:21.121Z,22.20
2019-01-18T00:12:47.071Z,22.20
2019-01-18T00:15:13.021Z,22.20
2019-01-18T00:17:38.965Z,22.20
2019-01-18T00:20:04.913Z,22.20
2019-01-18T00:22:30.885Z,22.20
2019-01-18T00:24:56.830Z,22.20
2019-01-18T00:27:22.797Z,22.20
2019-01-18T00:29:48.729Z,22.20
2019-01-18T00:32:14.727Z,22.20
2019-01-18T00:34:40.737Z,22.30
2019-01-18T00:37:06.785Z,22.30
2019-01-18T00:39:32.837Z,22.20
2019-01-18T00:41:58.771Z,22.20
2019-01-18T00:44:24.695Z,22.20
2019-01-18T00:46:50.646Z,22.20
2019-01-18T00:49:16.698Z,22.20
2019-01-18T00:51:42.652Z,22.20
2019-01-18T00:54:08.611Z,22.20
2019-01-18T00:56:34.585Z,22.20
2019-01-18T00:59:00.635Z,22.10
2019-01-18T01:01:26.589Z,22.20
2019-01-18T01:03:52.529Z,22.10
2019-01-18T01:06:18.473Z,22.10
2019-01-18T01:08:44.609Z,22.10
2019-01-18T01:11:10.587Z,22.20
2019-01-18T01:13:36.525Z,21.50
2019-01-18T01:16:02.465Z,22.10
2019-01-18T01:18:28.426Z,22.20
2019-01-18T01:20:54.551Z,22.10
2019-01-18T01:23:20.608Z,22.10
2019-01-18T01:25:46.557Z,22.10
2019-01-18T01:28:12.512Z,22.10
2019-01-18T01:30:38.464Z,22.00
2019-01-18T01:33:04.424Z,22.00
2019-01-18T01:35:30.368Z,21.90
2019-01-18T01:37:56.336Z,21.90
2019-01-18T01:40:22.296Z,21.90
2019-01-18T01:42:48.249Z,21.80
2019-01-18T01:45:14.196Z,21.90
2019-01-18T01:47:40.158Z,21.80
2019-01-18T01:50:06.103Z,21.80
2019-01-18T01:52:32.060Z,21.80
2019-01-18T01:54:58.024Z,21.80
2019-01-18T01:57:23.994Z,21.80
2019-01-18T01:59:50.139Z,21.70
2019-01-18T02:02:16.157Z,21.70
2019-01-18T02:04:42.223Z,21.80
2019-01-18T02:07:08.154Z,21.70
2019-01-18T02:09:34.101Z,21.70
2019-01-18T02:12:00.045Z,21.70
2019-01-18T02:14:25.995Z,21.80
2019-01-18T02:16:51.926Z,21.70
2019-01-18T02:19:17.888Z,21.70
2019-01-18T02:21:43.853Z,21.70
2019-01-18T02:24:09.788Z,21.70
2019-01-18T02:26:35.736Z,21.80
2019-01-18T02:29:01.668Z,21.80
2019-01-18T02:31:28.201Z,21.80
2019-01-18T02:33:54.197Z,21.80
2019-01-18T02:36:20.152Z,21.80
2019-01-18T02:38:46.089Z,21.90
2019-01-18T02:41:12.032Z,22.00
2019-01-18T02:43:38.059Z,22.10
2019-01-18T02:46:04.026Z,22.10
2019-01-18T02:48:29.966Z,22.10
2019-01-18T02:50:55.899Z,22.10
2019-01-18T02:53:21.857Z,22.10
2019-01-18T02:55:47.803Z,22.10
2019-01-18T02:58:13.751Z,22.10
2019-01-18T03:00:39.685Z,22.10
2019-01-18T03:03:05.640Z,22.00
2019-01-18T03:05:31.590Z,22.00
2019-01-18T03:07:57.528Z,22.10
2019-01-18T03:10:23.484Z,22.00
2019-01-18T03:12:49.450Z,22.00
2019-01-18T03:15:15.405Z,22.10
2019-01-18T03:17:41.332Z,22.10
2019-01-18T03:20:07.293Z,22.10
2019-01-18T03:22:33.325Z,22.10
2019-01-18T03:24:59.280Z,22.10
2019-01-18T03:27:25.221Z,22.10
2019-01-18T03:29:51.170Z,22.10
2019-01-18T03:32:17.128Z,22.10
2019-01-18T03:34:43.079Z,22.10
2019-01-18T03:37:09.041Z,22.10
2019-01-18T03:39:35.089Z,22.10
2019-01-18T03:42:01.025Z,22.10
2019-01-18T03:44:26.991Z,22.10
2019-01-18T03:46:52.943Z,22.10
2019-01-18T03:49:18.899Z,22.00
2019-01-18T03:51:44.859Z,22.10
2019-01-18T03:54:10.790Z,22.10
2019-01-18T03:56:36.735Z,22.00
2019-01-18T03:59:02.659Z,22.00
2019-01-18T04:01:29.062Z,21.90
2019-01-18T04:03:55.017Z,21.90
2019-01-18T04:06:20.976Z,21.90
2019-01-18T04:08:47.023Z,21.90
2019-01-18T04:11:13.221Z,21.90
2019-01-18T04:13:39.155Z,21.90
2019-01-18T04:16:05.097Z,21.90
2019-01-18T04:18:31.030Z,21.90
2019-01-18T04:20:56.993Z,21.80
2019-01-18T04:23:22.954Z,21.80
2019-01-18T04:25:48.896Z,21.80
2019-01-18T04:28:14.845Z,21.70
2019-01-18T04:30:40.814Z,21.70
2019-01-18T04:33:06.758Z,21.70
2019-01-18T04:35:32.689Z,21.70
2019-01-18T04:37:58.649Z,21.70
2019-01-18T04:40:24.618Z,21.70
2019-01-18T04:42:50.577Z,21.70
2019-01-18T04:45:16.641Z,21.70
2019-01-18T04:47:42.676Z,21.60
2019-01-18T04:50:08.639Z,21.60
2019-01-18T04:52:34.591Z,21.60
2019-01-18T04:55:00.533Z,21.60
2019-01-18T04:57:26.486Z,21.70
2019-01-18T04:59:52.573Z,21.70
2019-01-18T05:02:18.619Z,21.70
2019-01-18T05:04:44.581Z,21.60
2019-01-18T05:07:10.631Z,21.60
2019-01-18T05:09:36.600Z,21.70
2019-01-18T05:12:02.650Z,21.80
2019-01-18T05:14:28.675Z,21.80
2019-01-18T05:16:54.605Z,21.80
2019-01-18T05:19:20.559Z,21.80
2019-01-18T05:21:46.530Z,21.80
2019-01-18T05:24:12.585Z,21.70
2019-01-18T05:26:38.633Z,21.80
2019-01-18T05:29:04.593Z,21.80
2019-01-18T05:31:30.552Z,21.90
2019-01-18T05:33:56.491Z,21.80
2019-01-18T05:36:22.471Z,21.80
2019-01-18T05:38:48.424Z,21.90
2019-01-18T05:41:14.383Z,21.90
2019-01-18T05:43:40.338Z,21.90
2019-01-18T05:46:06.303Z,21.90
2019-01-18T05:48:32.247Z,21.90
2019-01-18T05:50:58.207Z,21.90
2019-01-18T05:53:24.571Z,21.90
2019-01-18T05:55:50.640Z,21.90
2019-01-18T05:58:16.694Z,21.90
2019-01-18T06:00:44.545Z,21.90
2019-01-18T06:03:10.509Z,21.90
2019-01-18T06:05:38.393Z,21.90
2019-01-18T06:08:04.364Z,22.00
2019-01-18T06:10:30.300Z,22.10
2019-01-18T06:12:56.240Z,22.10
2019-01-18T06:15:22.204Z,22.00
2019-01-18T06:17:48.157Z,22.00
2019-01-18T06:20:14.131Z,22.20
2019-01-18T06:22:40.174Z,22.30
2019-01-18T06:25:06.124Z,22.40
2019-01-18T06:27:32.179Z,22.50
2019-01-18T06:29:58.152Z,22.60
2019-01-18T06:32:24.114Z,22.60
2019-01-18T06:34:50.177Z,22.70
2019-01-18T06:37:16.211Z,22.70
2019-01-18T06:39:42.186Z,22.60
2019-01-18T06:42:08.150Z,22.60
2019-01-18T06:44:34.098Z,22.40
2019-01-18T06:47:00.056Z,22.20
2019-01-18T06:49:26.021Z,22.00
2019-01-18T06:51:51.984Z,21.90
2019-01-18T06:54:17.950Z,21.80
2019-01-18T06:56:43.915Z,21.70
2019-01-18T06:59:09.858Z,21.60
2019-01-18T07:01:35.852Z,21.60
2019-01-18T07:04:01.908Z,21.60
2019-01-18T07:06:27.876Z,21.50
2019-01-18T07:08:53.826Z,21.50
2019-01-18T07:11:19.786Z,21.50
2019-01-18T07:13:45.726Z,21.50
2019-01-18T07:16:11.693Z,21.50
2019-01-18T07:18:37.731Z,21.50
2019-01-18T07:21:03.668Z,21.50
2019-01-18T07:23:29.647Z,21.50
2019-01-18T07:25:55.658Z,21.50
2019-01-18T07:28:21.592Z,21.50
2019-01-18T07:30:47.542Z,21.50
2019-01-18T07:33:13.490Z,21.40
2019-01-18T07:35:39.457Z,21.40
2019-01-18T07:38:05.380Z,21.30
2019-01-18T07:40:31.323Z,21.30
2019-01-18T07:42:57.268Z,21.20
2019-01-18T07:45:23.199Z,21.20
2019-01-18T07:47:49.157Z,21.20
2019-01-18T07:50:19.993Z,21.20
2019-01-18T07:52:43.904Z,21.20
2019-01-18T07:55:09.946Z,21.20
2019-01-18T07:57:35.901Z,21.20
2019-01-18T08:00:01.864Z,21.30
2019-01-18T08:02:27.839Z,21.30
2019-01-18T08:04:53.804Z,21.40
2019-01-18T08:07:19.753Z,21.40
2019-01-18T08:09:45.701Z,21.40
2019-01-18T08:12:11.654Z,21.40
2019-01-18T08:14:37.603Z,21.40
2019-01-18T08:17:03.543Z,21.50
2019-01-18T08:19:29.507Z,21.50
2019-01-18T08:21:55.453Z,21.50
2019-01-18T08:24:21.417Z,21.50
2019-01-18T08:26:47.474Z,21.50
2019-01-18T08:29:13.418Z,21.50
2019-01-18T08:31:39.420Z,21.50
2019-01-18T08:34:05.419Z,21.40
2019-01-18T08:36:31.353Z,21.40
2019-01-18T08:38:57.301Z,21.30
2019-01-18T08:41:23.263Z,21.30
2019-01-18T08:43:49.205Z,21.30
2019-01-18T08:46:15.147Z,21.30
2019-01-18T08:48:41.189Z,21.30
2019-01-18T08:51:07.138Z,21.30
2019-01-18T08:53:33.090Z,21.30
2019-01-18T08:55:59.129Z,21.30
2019-01-18T08:58:25.066Z,21.30
2019-01-18T09:00:51.003Z,21.30
2019-01-18T09:03:16.997Z,21.30
2019-01-18T09:05:43.067Z,21.30
2019-01-18T09:08:09.133Z,21.40
2019-01-18T09:10:35.181Z,21.40
2019-01-18T09:13:01.125Z,21.40
2019-01-18T09:15:27.097Z,21.50
2019-01-18T09:17:53.041Z,21.50
2019-01-18T09:20:18.991Z,21.50
2019-01-18T09:22:44.935Z,21.60
2019-01-18T09:25:10.899Z,21.60
2019-01-18T09:27:36.974Z,21.60
2019-01-18T09:30:03.031Z,21.60
2019-01-18T09:32:28.968Z,21.60
2019-01-18T09:34:54.985Z,21.70
2019-01-18T09:37:21.078Z,21.60
2019-01-18T09:39:47.039Z,21.60
2019-01-18T09:42:12.988Z,21.50
2019-01-18T09:44:38.937Z,21.50
2019-01-18T09:47:04.906Z,21.50
2019-01-18T09:49:30.892Z,21.50
2019-01-18T09:51:56.924Z,21.50
2019-01-18T09:54:22.892Z,21.60
2019-01-18T09:56:48.852Z,21.60
2019-01-18T09:59:14.806Z,21.60
2019-01-18T10:01:40.769Z,21.70
2019-01-18T10:04:06.726Z,21.70
2019-01-18T10:06:34.225Z,21.70
2019-01-18T10:09:00.181Z,21.80
2019-01-18T10:11:26.264Z,21.80
2019-01-18T10:13:52.230Z,21.80
2019-01-18T10:16:18.636Z,21.80
2019-01-18T10:18:44.599Z,21.90
2019-01-18T10:21:10.544Z,21.90
2019-01-18T10:23:36.513Z,21.90
2019-01-18T10:26:02.937Z,21.90
2019-01-18T10:28:28.872Z,21.90
2019-01-18T10:30:54.831Z,21.90
2019-01-18T10:33:20.903Z,22.00
2019-01-18T10:35:46.948Z,22.00
2019-01-18T10:38:12.924Z,22.00
2019-01-18T10:40:38.871Z,22.00
2019-01-18T10:43:04.809Z,22.00
2019-01-18T10:45:30.780Z,22.10
2019-01-18T10:47:56.719Z,22.00
2019-01-18T10:50:22.701Z,22.10
2019-01-18T10:52:48.671Z,22.00
2019-01-18T10:55:14.710Z,22.00
2019-01-18T10:57:40.665Z,21.90
2019-01-18T11:00:07.328Z,21.90
2019-01-18T11:02:33.288Z,21.90
2019-01-18T11:04:59.258Z,21.90
2019-01-18T11:07:25.220Z,21.90
2019-01-18T11:09:51.168Z,22.00
2019-01-18T11:12:17.137Z,22.00
2019-01-18T11:14:43.096Z,22.00
2019-01-18T11:17:09.030Z,22.10
2019-01-18T11:19:35.012Z,22.10
2019-01-18T11:22:01.086Z,22.10
2019-01-18T11:24:27.028Z,22.20
2019-01-18T11:26:52.977Z,22.20
2019-01-18T11:29:18.960Z,22.20
2019-01-18T11:31:44.933Z,22.20
2019-01-18T11:34:10.870Z,22.30
2019-01-18T11:36:36.898Z,22.30
2019-01-18T11:39:03.949Z,22.30
2019-01-18T11:41:29.930Z,22.20
2019-01-18T11:43:55.885Z,22.30
2019-01-18T11:46:22.057Z,22.30
2019-01-18T11:48:50.400Z,22.30
2019-01-18T11:51:15.894Z,22.30
2019-01-18T11:53:41.863Z,22.40
2019-01-18T11:56:08.514Z,22.30
2019-01-18T11:58:35.197Z,23.10
2019-01-18T12:01:01.768Z,22.40
2019-01-18T12:03:27.715Z,22.40
2019-01-18T12:05:53.679Z,22.30
2019-01-18T12:08:19.621Z,22.40
2019-01-18T12:10:45.571Z,22.40
2019-01-18T12:13:11.522Z,22.40
2019-01-18T12:15:38.366Z,22.40
2019-01-18T12:18:04.412Z,22.30
2019-01-18T12:20:30.370Z,22.20
2019-01-18T12:22:56.318Z,22.20
2019-01-18T12:25:22.389Z,22.20
2019-01-18T12:27:48.453Z,22.20
2019-01-18T12:30:14.399Z,22.30
2019-01-18T12:32:40.343Z,22.20
2019-01-18T12:35:06.301Z,22.20
2019-01-18T12:37:32.249Z,22.10
2019-01-18T12:39:58.203Z,22.10
2019-01-18T12:42:24.181Z,22.00
2019-01-18T12:44:50.219Z,22.00
2019-01-18T12:47:16.159Z,22.00
2019-01-18T12:49:42.111Z,22.10
2019-01-18T12:52:08.089Z,22.00
2019-01-18T12:54:34.149Z,22.00
2019-01-18T12:57:00.093Z,22.00
2019-01-18T12:59:26.032Z,21.90
2019-01-18T13:01:51.981Z,21.90
2019-01-18T13:04:17.934Z,21.90
2019-01-18T13:06:43.981Z,21.90
2019-01-18T13:09:09.965Z,21.90
2019-01-18T13:11:36.019Z,22.00
2019-01-18T13:14:01.978Z,22.00
2019-01-18T13:16:28.489Z,22.10
2019-01-18T13:18:54.446Z,22.10
2019-01-18T13:21:20.501Z,22.20
2019-01-18T13:23:46.443Z,22.20
2019-01-18T13:26:13.077Z,22.30
2019-01-18T13:28:39.111Z,22.30
2019-01-18T13:31:05.071Z,22.30
2019-01-18T13:33:31.015Z,22.30
2019-01-18T13:35:56.975Z,22.30
2019-01-18T13:38:22.951Z,22.40
2019-01-18T13:40:48.995Z,22.40
2019-01-18T13:43:14.932Z,22.40
2019-01-18T13:45:40.882Z,22.40
2019-01-18T13:48:06.831Z,22.40
2019-01-18T13:50:32.797Z,22.40
2019-01-18T13:52:58.778Z,22.30
2019-01-18T13:55:24.928Z,22.30
2019-01-18T13:57:50.884Z,22.20
2019-01-18T14:00:16.927Z,22.20
2019-01-18T14:02:48.393Z,22.20
2019-01-18T14:05:10.724Z,22.20
2019-01-18T14:07:37.784Z,22.20
2019-01-18T14:10:03.745Z,22.30
2019-01-18T14:12:29.711Z,22.40
2019-01-18T14:14:56.036Z,22.40
2019-01-18T14:17:21.989Z,22.40
2019-01-18T14:19:47.943Z,22.40
2019-01-18T14:22:13.899Z,22.40
2019-01-18T14:24:39.852Z,22.40
2019-01-18T14:27:05.794Z,22.50
2019-01-18T14:29:31.926Z,22.50
2019-01-18T14:31:57.858Z,22.40
2019-01-18T14:34:23.913Z,22.50
2019-01-18T14:36:49.874Z,22.50
2019-01-18T14:39:15.814Z,22.40
2019-01-18T14:41:41.757Z,22.50
2019-01-18T14:44:07.712Z,22.50
2019-01-18T14:46:33.658Z,22.50
2019-01-18T14:48:59.610Z,22.50
2019-01-18T14:51:25.574Z,22.60
2019-01-18T14:53:51.496Z,22.70
2019-01-18T14:56:17.459Z,22.80
2019-01-18T14:58:43.417Z,23.00
2019-01-18T15:01:09.376Z,23.20
2019-01-18T15:03:35.522Z,23.30
2019-01-18T15:06:01.462Z,23.50
2019-01-18T15:08:27.434Z,23.60
2019-01-18T15:10:53.388Z,23.80
2019-01-18T15:13:19.356Z,23.80
2019-01-18T15:15:45.296Z,24.00
2019-01-18T15:18:11.252Z,24.00
2019-01-18T15:20:37.301Z,24.10
2019-01-18T15:23:03.269Z,24.20
2019-01-18T15:25:29.247Z,24.20
2019-01-18T15:27:55.214Z,24.10
2019-01-18T15:30:21.179Z,24.10
2019-01-18T15:32:47.112Z,24.10
2019-01-18T15:35:13.112Z,24.20
2019-01-18T15:37:39.096Z,24.30
2019-01-18T15:40:05.153Z,24.30
2019-01-18T15:42:31.104Z,24.30
2019-01-18T15:44:57.073Z,24.40
2019-01-18T15:47:23.022Z,24.40
2019-01-18T15:49:48.983Z,24.50
2019-01-18T15:52:14.957Z,24.60
2019-01-18T15:54:40.920Z,24.70
2019-01-18T15:57:06.884Z,24.70
2019-01-18T15:59:32.846Z,24.80
2019-01-18T16:02:00.695Z,24.70
2019-01-18T16:04:27.028Z,24.80
2019-01-18T16:06:53.058Z,24.90
2019-01-18T16:09:19.010Z,24.90
2019-01-18T16:11:45.430Z,24.90
2019-01-18T16:14:11.393Z,25.00
2019-01-18T16:16:37.346Z,25.00
2019-01-18T16:19:03.297Z,25.00
2019-01-18T16:21:29.238Z,25.10
2019-01-18T16:23:55.206Z,25.10
2019-01-18T16:26:21.259Z,25.20
2019-01-18T16:28:47.223Z,25.20
2019-01-18T16:31:13.509Z,25.20
2019-01-18T16:33:39.471Z,25.20
2019-01-18T16:36:05.524Z,25.30
2019-01-18T16:38:31.474Z,25.20
2019-01-18T16:40:57.453Z,25.20
2019-01-18T16:43:23.481Z,25.30
2019-01-18T16:45:49.422Z,25.30
2019-01-18T16:48:15.374Z,25.20
2019-01-18T16:50:41.337Z,25.20
2019-01-18T16:53:07.280Z,25.30
2019-01-18T16:55:33.229Z,25.30
2019-01-18T16:57:59.184Z,25.20
2019-01-18T17:00:25.141Z,25.20
2019-01-18T17:02:51.082Z,25.20
2019-01-18T17:05:17.040Z,25.10
2019-01-18T17:07:43.012Z,25.20
2019-01-18T17:10:08.942Z,25.10
2019-01-18T17:12:34.893Z,25.20
2019-01-18T17:15:00.877Z,25.20
2019-01-18T17:17:26.839Z,25.10
2019-01-18T17:19:52.817Z,25.10
2019-01-18T17:22:18.841Z,25.20
2019-01-18T17:24:44.811Z,25.20
2019-01-18T17:27:10.761Z,25.20
2019-01-18T17:29:37.145Z,25.20
2019-01-18T17:32:03.084Z,25.20
2019-01-18T17:34:29.038Z,25.30
2019-01-18T17:36:54.997Z,25.30
2019-01-18T17:39:20.950Z,25.40
2019-01-18T17:41:46.931Z,25.50
2019-01-18T17:44:12.966Z,25.60
2019-01-18T17:46:38.903Z,25.60
2019-01-18T17:49:04.879Z,25.60
2019-01-18T17:51:30.835Z,25.60
2019-01-18T17:53:56.810Z,25.60
2019-01-18T17:56:22.767Z,25.70
2019-01-18T17:58:48.736Z,25.70
2019-01-18T18:01:14.686Z,25.70
2019-01-18T18:03:43.667Z,25.60
2019-01-18T18:06:08.493Z,25.50
2019-01-18T18:08:34.458Z,25.40
2019-01-18T18:11:00.838Z,25.40
2019-01-18T18:13:27.356Z,25.30
2019-01-18T18:15:53.371Z,25.40
2019-01-18T18:18:19.311Z,25.30
2019-01-18T18:20:45.289Z,25.40
2019-01-18T18:23:11.332Z,25.50
2019-01-18T18:25:37.291Z,25.40
2019-01-18T18:28:03.255Z,25.60
2019-01-18T18:30:29.233Z,25.60
2019-01-18T18:32:55.279Z,25.70
2019-01-18T18:35:21.255Z,25.70
2019-01-18T18:37:47.891Z,25.80
2019-01-18T18:40:13.859Z,25.90
2019-01-18T18:42:39.821Z,26.00
2019-01-18T18:45:05.771Z,25.90
2019-01-18T18:47:31.995Z,25.90
2019-01-18T18:49:58.078Z,26.00
2019-01-18T18:52:24.062Z,25.80
2019-01-18T18:54:50.039Z,25.60
2019-01-18T18:57:16.016Z,25.40
2019-01-18T18:59:41.968Z,25.10
2019-01-18T19:02:08.045Z,24.90
2019-01-18T19:04:34.011Z,24.70
2019-01-18T19:06:59.968Z,24.50
2019-01-18T19:09:25.940Z,24.40
2019-01-18T19:11:51.890Z,24.30
2019-01-18T19:14:17.854Z,24.20
2019-01-18T19:16:43.789Z,24.10
2019-01-18T19:19:09.758Z,24.10
2019-01-18T19:21:35.718Z,24.00
2019-01-18T19:24:01.771Z,23.90
2019-01-18T19:26:27.827Z,23.80
2019-01-18T19:28:53.902Z,23.70
2019-01-18T19:31:19.953Z,23.70
2019-01-18T19:33:45.916Z,23.60
2019-01-18T19:36:11.956Z,23.60
2019-01-18T19:38:37.908Z,23.60
2019-01-18T19:41:03.878Z,23.60
2019-01-18T19:43:29.844Z,23.60
2019-01-18T19:45:55.906Z,23.60
2019-01-18T19:48:21.886Z,23.60
2019-01-18T19:50:47.957Z,23.60
2019-01-18T19:53:14.033Z,23.60
2019-01-18T19:55:40.082Z,23.70
2019-01-18T19:58:06.066Z,23.60
2019-01-18T20:00:32.123Z,23.60
2019-01-18T20:02:58.080Z,23.60
2019-01-18T20:05:24.153Z,23.60
2019-01-18T20:07:50.906Z,23.70
2019-01-18T20:10:16.994Z,23.70
2019-01-18T20:12:43.029Z,23.70
2019-01-18T20:15:09.093Z,23.70
2019-01-18T20:17:35.058Z,23.70
2019-01-18T20:20:01.042Z,23.70
2019-01-18T20:22:27.109Z,23.70
2019-01-18T20:24:53.077Z,23.70
2019-01-18T20:27:19.047Z,23.70
2019-01-18T20:29:45.111Z,23.60
2019-01-18T20:32:11.110Z,23.60
2019-01-18T20:34:37.161Z,23.50
2019-01-18T20:37:03.110Z,23.50
2019-01-18T20:39:29.097Z,23.40
2019-01-18T20:41:55.161Z,23.40
2019-01-18T20:44:21.141Z,23.40
2019-01-18T20:46:47.157Z,23.40
2019-01-18T20:49:13.219Z,23.40
2019-01-18T20:51:39.291Z,23.40
2019-01-18T20:54:05.282Z,23.50
2019-01-18T20:56:31.255Z,23.50
2019-01-18T20:58:57.320Z,23.50
2019-01-18T21:01:23.261Z,23.50
2019-01-18T21:03:49.202Z,23.50
2019-01-18T21:06:15.148Z,23.60
2019-01-18T21:08:41.089Z,23.60
2019-01-18T21:11:08.103Z,23.60
2019-01-18T21:13:34.185Z,23.50
2019-01-18T21:16:00.213Z,23.40
2019-01-18T21:18:26.174Z,23.40
2019-01-18T21:20:52.165Z,23.40
2019-01-18T21:23:18.231Z,23.30
2019-01-18T21:25:44.232Z,23.30
2019-01-18T21:28:11.139Z,23.20
2019-01-18T21:30:37.096Z,23.30
2019-01-18T21:33:07.303Z,23.30
2019-01-18T21:35:30.896Z,23.20
2019-01-18T21:37:56.910Z,23.20
2019-01-18T21:40:22.945Z,23.20
2019-01-18T21:42:48.876Z,23.20
2019-01-18T21:45:16.169Z,23.20
2019-01-18T21:47:42.230Z,23.20
2019-01-18T21:50:08.264Z,23.20
2019-01-18T21:52:34.234Z,23.20
2019-01-18T21:55:00.270Z,23.20
2019-01-18T21:57:26.270Z,23.20
2019-01-18T21:59:52.230Z,23.20
2019-01-18T22:02:18.177Z,23.20
2019-01-18T22:04:44.149Z,23.20
2019-01-18T22:07:10.195Z,23.20
2019-01-18T22:09:36.169Z,23.20
2019-01-18T22:12:02.152Z,23.20
2019-01-18T22:14:28.324Z,23.20
2019-01-18T22:16:54.293Z,23.20
2019-01-18T22:19:20.243Z,23.20
2019-01-18T22:21:46.207Z,23.20
2019-01-18T22:24:12.292Z,23.20
2019-01-18T22:26:38.239Z,23.20
2019-01-18T22:29:04.174Z,23.20
2019-01-18T22:31:30.119Z,23.20
2019-01-18T22:33:56.079Z,23.20
2019-01-18T22:36:22.051Z,23.20
2019-01-18T22:38:47.973Z,23.20
2019-01-18T22:41:13.914Z,23.30
2019-01-18T22:43:39.879Z,23.30
2019-01-18T22:46:05.938Z,23.20
2019-01-18T22:48:31.926Z,23.30
2019-01-18T22:50:57.869Z,23.30
2019-01-18T22:53:23.828Z,23.20
2019-01-18T22:55:49.818Z,23.30
2019-01-18T22:58:15.861Z,23.20
2019-01-18T23:01:01.998Z,23.20
2019-01-18T23:03:27.938Z,23.20
2019-01-18T23:05:53.942Z,23.20
2019-01-18T23:08:20.286Z,23.20
2019-01-18T23:10:46.256Z,23.20
2019-01-18T23:13:12.223Z,23.10
2019-01-18T23:15:38.180Z,23.10
2019-01-18T23:18:04.124Z,23.00
2019-01-18T23:20:30.074Z,22.90
2019-01-18T23:22:56.022Z,22.80
2019-01-18T23:25:21.978Z,22.80
2019-01-18T23:27:47.949Z,22.70
2019-01-18T23:30:13.906Z,22.70
2019-01-18T23:32:39.900Z,22.60
2019-01-18T23:35:05.948Z,22.60
2019-01-18T23:37:31.890Z,22.60
2019-01-18T23:39:57.859Z,22.60
2019-01-18T23:42:25.283Z,22.60
2019-01-18T23:44:51.468Z,22.50
2019-01-18T23:47:17.735Z,22.50
2019-01-18T23:49:43.682Z,22.40
2019-01-18T23:52:09.636Z,22.50
2019-01-18T23:54:35.594Z,22.40
2019-01-18T23:57:01.566Z,22.40
2019-01-18T23:59:27.636Z,22.40
